Clam Lake, WI

9:39 AM CDT on May 29, 2015 (GMT -0500)
Kennedy Memorial | | Change Station
CLOSE
Current Station
Airport
Location: Ashland,
Elevation: 823 ft
Nearby Weather Stations

Elev 823 ft 46.55 °N, 90.92 °W | Updated 46 minutes ago

Overcast
Overcast
63 °F
Feels Like 63 °F
N
6
Wind Variable Wind from SSW

Today
High -- | Low -- °F
--% Chance of Precip.
Yesterday
High -- | Low -- °F
Precip. -- in
5:17 AM 8:45 PM
Waxing Gibbous, 84% visible
Pressure 29.88 in
Visibility 5.0 miles
Clouds Scattered Clouds 3900 ft
Mostly Cloudy 4700 ft
Overcast 7500 ft
Dew Point 61 °F
Humidity 93%
Rainfall 0.06 in
Snow Depth Not available.
UV 1 out of 12
Pollen 5.30 out of 12
Air Quality Not available.
Flu Activity Sporadic
METAR KASX 291353Z AUTO 21005KT 5SM -RA BR SCT039 BKN047 OVC075 17/16 A2987 RMK AO2 RAE01B36 SLP117 P0001 T01720161

More Conditions Fewer Conditions

Pressure 29.88 in
Visibility 5.0 miles
Clouds Scattered Clouds 3900 ft
Mostly Cloudy 4700 ft
Overcast 7500 ft
Dew Point 61 °F
Humidity 93%
Rainfall 0.06 in
Snow Depth Not available.
UV 1 out of 12
Pollen 5.30 out of 12
Air Quality Not available.
Flu Activity Sporadic
METAR KASX 291353Z AUTO 21005KT 5SM -RA BR SCT039 BKN047 OVC075 17/16 A2987 RMK AO2 RAE01B36 SLP117 P0001 T01720161

More Conditions Fewer Conditions

10-Day Weather Forecast

Almanac

Astronomy

May. 29, 2015 Rise Set
Actual Time
Civil Twilight
Nautical Twilight
Astronomical Twilight
Moon
Length of Visible Light
Length of Day
Tomorrow will be .
, % of the Moon is Illuminated

Today's Extremes

State Highs State Lows

Community

WunderPhotos

Upload Photos

1,825,284 photos uploaded!

WunderBlogs® & News

Nearby

Air Quality

  Air Quality AQ Index Pollutant
Not available.

Snow Depth

Station Depth Elevation

Earthquake Activity

City Distance Mag. Time & Date
Minimum magnitude displayed is 2.5.

Coastal Water Temperatures

Place Temperature

Stations

Nearby Weather Stations

Station Location Temp. Windchill Dew Point Humidity Wind Precip. Elev Updated Type